createdAt,value
2023-02-11T00:01:49.742Z,17.58
2023-02-11T00:04:16.374Z,12.30
2023-02-11T00:06:43.123Z,17.60
2023-02-11T00:09:10.463Z,17.08
2023-02-11T00:11:37.034Z,16.70
2023-02-11T00:14:08.039Z,15.18
2023-02-11T00:16:35.143Z,14.30
2023-02-11T00:19:03.538Z,12.57
2023-02-11T00:21:30.349Z,13.77
2023-02-11T00:23:59.728Z,16.38
2023-02-11T00:26:32.316Z,11.93
2023-02-11T00:28:59.228Z,12.90
2023-02-11T00:31:26.636Z,19.15
2023-02-11T00:33:54.171Z,17.55
2023-02-11T00:36:26.667Z,13.27
2023-02-11T00:38:54.368Z,16.73
2023-02-11T00:41:21.499Z,17.95
2023-02-11T00:43:48.716Z,15.02
2023-02-11T00:46:15.712Z,14.15
2023-02-11T00:48:43.042Z,14.55
2023-02-11T00:51:10.100Z,20.88
2023-02-11T00:53:36.980Z,14.73
2023-02-11T00:56:04.150Z,17.88
2023-02-11T00:58:31.150Z,14.18
2023-02-11T01:00:57.864Z,16.15
2023-02-11T01:03:24.549Z,14.43
2023-02-11T01:05:51.552Z,16.27
2023-02-11T01:08:18.343Z,15.95
2023-02-11T01:10:45.021Z,15.32
2023-02-11T01:13:11.760Z,13.88
2023-02-11T01:15:38.295Z,11.02
2023-02-11T01:18:05.652Z,15.02
2023-02-11T01:20:32.320Z,11.00
2023-02-11T01:22:58.895Z,13.73
2023-02-11T01:25:25.446Z,11.05
2023-02-11T01:27:52.071Z,13.88
2023-02-11T01:30:18.654Z,10.38
2023-02-11T01:32:45.181Z,12.68
2023-02-11T01:35:11.939Z,17.58
2023-02-11T01:37:38.601Z,12.35
2023-02-11T01:40:08.104Z,9.10
2023-02-11T01:42:34.768Z,13.48
2023-02-11T01:45:21.932Z,14.40
2023-02-11T01:47:48.532Z,9.45
2023-02-11T01:50:15.201Z,14.57
2023-02-11T01:52:42.631Z,14.38
2023-02-11T01:55:31.784Z,19.08
2023-02-11T01:58:02.902Z,12.93
2023-02-11T02:00:36.251Z,14.82
2023-02-11T02:03:31.418Z,12.65
2023-02-11T02:06:06.032Z,11.68
2023-02-11T02:08:46.949Z,13.10
2023-02-11T02:11:13.555Z,16.20
2023-02-11T02:13:40.122Z,16.25
2023-02-11T02:16:12.652Z,19.20
2023-02-11T02:18:53.081Z,14.32
2023-02-11T02:21:30.178Z,16.35
2023-02-11T02:24:15.470Z,17.17
2023-02-11T02:27:13.125Z,19.73
2023-02-11T02:29:45.504Z,19.00
2023-02-11T02:32:40.305Z,22.85
2023-02-11T02:35:14.792Z,17.30
2023-02-11T02:37:50.708Z,20.95
2023-02-11T02:40:23.760Z,20.42
2023-02-11T02:42:51.423Z,21.00
2023-02-11T02:45:19.300Z,22.13
2023-02-11T02:47:45.854Z,11.52
2023-02-11T02:50:16.751Z,9.80
2023-02-11T02:53:02.058Z,16.33
2023-02-11T02:55:37.507Z,14.77
2023-02-11T02:58:32.946Z,12.82
2023-02-11T03:01:04.903Z,13.57
2023-02-11T03:03:37.651Z,23.40
2023-02-11T03:06:22.672Z,16.95
2023-02-11T03:08:57.095Z,22.63
2023-02-11T03:11:25.872Z,12.90
2023-02-11T03:13:54.605Z,10.60
2023-02-11T03:16:27.393Z,22.40
2023-02-11T03:19:03.391Z,18.42
2023-02-11T03:21:33.398Z,18.75
2023-02-11T03:24:05.875Z,23.02
2023-02-11T03:26:48.606Z,19.35
2023-02-11T03:29:43.167Z,25.38
2023-02-11T03:34:52.934Z,20.27
2023-02-11T03:37:31.527Z,18.90
2023-02-11T03:40:03.559Z,24.75
2023-02-11T03:42:39.012Z,21.92
2023-02-11T03:45:10.177Z,23.08
2023-02-11T03:47:39.982Z,22.15
2023-02-11T03:50:08.978Z,20.90
2023-02-11T03:52:37.903Z,12.75
2023-02-11T03:55:11.248Z,22.27
2023-02-11T03:57:38.332Z,17.90
2023-02-11T04:00:06.529Z,14.40
2023-02-11T04:02:36.100Z,21.05
2023-02-11T04:05:03.256Z,19.83
2023-02-11T04:07:30.074Z,10.70
2023-02-11T04:09:56.684Z,18.08
2023-02-11T04:12:23.247Z,16.50
2023-02-11T04:14:49.854Z,15.25
2023-02-11T04:17:16.899Z,15.65
2023-02-11T04:19:43.441Z,17.65
2023-02-11T04:22:10.287Z,21.05
2023-02-11T04:24:36.828Z,20.05
2023-02-11T04:27:03.523Z,20.08
2023-02-11T04:29:30.346Z,16.52
2023-02-11T04:31:56.968Z,22.45
2023-02-11T04:34:24.565Z,23.70
2023-02-11T04:36:51.265Z,21.90
2023-02-11T04:39:18.022Z,21.35
2023-02-11T04:41:44.661Z,18.88
2023-02-11T04:44:11.242Z,20.27
2023-02-11T04:46:37.807Z,22.60
2023-02-11T04:49:04.530Z,17.88
2023-02-11T04:51:31.237Z,21.25
2023-02-11T04:53:57.784Z,14.68
2023-02-11T04:56:24.380Z,26.27
2023-02-11T04:58:50.990Z,18.30
2023-02-11T05:01:17.740Z,19.65
2023-02-11T05:03:44.932Z,21.33
2023-02-11T05:06:12.199Z,19.38
2023-02-11T05:08:39.865Z,18.10
2023-02-11T05:11:06.603Z,25.38
2023-02-11T05:13:33.437Z,21.55
2023-02-11T05:16:00.200Z,11.98
2023-02-11T05:18:26.760Z,22.92
2023-02-11T05:20:53.355Z,19.60
2023-02-11T05:23:20.087Z,17.83
2023-02-11T05:25:46.631Z,22.85
2023-02-11T05:28:13.157Z,12.63
2023-02-11T05:30:39.854Z,21.00
2023-02-11T05:33:06.501Z,17.17
2023-02-11T05:35:33.039Z,17.45
2023-02-11T05:37:59.559Z,17.08
2023-02-11T05:40:26.192Z,18.67
2023-02-11T05:42:52.769Z,20.98
2023-02-11T05:45:19.305Z,18.02
2023-02-11T05:47:45.909Z,18.60
2023-02-11T05:50:12.638Z,21.83
2023-02-11T05:52:39.257Z,15.95
2023-02-11T05:55:06.490Z,13.82
2023-02-11T05:57:33.037Z,20.33
2023-02-11T05:59:59.590Z,21.65
2023-02-11T06:02:26.171Z,17.20
2023-02-11T06:04:52.783Z,15.05
2023-02-11T06:07:19.804Z,21.40
2023-02-11T06:09:47.475Z,17.95
2023-02-11T06:12:13.983Z,11.27
2023-02-11T06:14:40.612Z,16.50
2023-02-11T06:17:07.303Z,17.13
2023-02-11T06:19:34.269Z,19.38
2023-02-11T06:22:00.863Z,20.75
2023-02-11T06:24:50.956Z,12.45
2023-02-11T06:27:14.214Z,18.92
2023-02-11T06:29:40.733Z,16.42
2023-02-11T06:32:10.104Z,20.52
2023-02-11T06:34:42.573Z,10.35
2023-02-11T06:37:09.102Z,16.55
2023-02-11T06:39:35.624Z,20.95
2023-02-11T06:42:02.177Z,18.20
2023-02-11T06:44:28.687Z,21.10
2023-02-11T06:46:55.307Z,27.23
2023-02-11T06:49:21.919Z,19.73
2023-02-11T06:51:48.472Z,19.73
2023-02-11T06:54:15.083Z,16.27
2023-02-11T06:56:41.832Z,25.02
2023-02-11T06:59:08.980Z,31.52
2023-02-11T07:01:35.662Z,21.25
2023-02-11T07:04:02.238Z,18.48
2023-02-11T07:06:28.958Z,18.95
2023-02-11T07:08:56.552Z,21.60
2023-02-11T07:11:25.965Z,20.27
2023-02-11T07:13:54.686Z,30.30
2023-02-11T07:16:21.419Z,20.27
2023-02-11T07:18:49.021Z,23.10
2023-02-11T07:21:19.408Z,15.73
2023-02-11T07:23:47.052Z,17.38
2023-02-11T07:26:15.948Z,15.15
2023-02-11T07:28:43.546Z,16.92
2023-02-11T07:31:18.938Z,13.88
2023-02-11T07:33:48.473Z,33.63
2023-02-11T07:36:16.473Z,21.38
2023-02-11T07:38:43.904Z,13.88
2023-02-11T07:41:12.904Z,17.23
2023-02-11T07:43:40.289Z,19.27
2023-02-11T07:46:10.131Z,14.23
2023-02-11T07:48:37.654Z,25.85
2023-02-11T07:51:13.674Z,22.20
2023-02-11T07:53:41.111Z,18.92
2023-02-11T07:56:08.776Z,24.08
2023-02-11T07:58:35.803Z,17.73
2023-02-11T08:01:07.405Z,21.02
2023-02-11T08:03:35.182Z,16.52
2023-02-11T08:06:13.150Z,19.50
2023-02-11T08:08:40.449Z,18.42
2023-02-11T08:11:13.227Z,14.98
2023-02-11T08:13:40.072Z,15.27
2023-02-11T08:16:08.000Z,16.42
2023-02-11T08:18:35.443Z,16.05
2023-02-11T08:21:06.837Z,15.05
2023-02-11T08:23:33.831Z,20.63
2023-02-11T08:26:13.170Z,18.75
2023-02-11T08:28:40.980Z,18.90
2023-02-11T08:31:13.842Z,21.85
2023-02-11T08:33:41.110Z,19.97
2023-02-11T08:36:16.774Z,17.17
2023-02-11T08:38:44.059Z,20.75
2023-02-11T08:41:11.401Z,23.20
2023-02-11T08:43:41.674Z,19.85
2023-02-11T08:46:10.056Z,19.10
2023-02-11T08:48:36.636Z,19.15
2023-02-11T08:51:11.552Z,20.73
2023-02-11T08:53:39.281Z,17.75
2023-02-11T08:56:06.480Z,20.73
2023-02-11T08:58:33.374Z,23.17
2023-02-11T09:01:00.108Z,16.63
2023-02-11T09:03:26.684Z,17.80
2023-02-11T09:05:53.444Z,17.80
2023-02-11T09:08:21.062Z,13.88
2023-02-11T09:10:47.976Z,19.08
2023-02-11T09:13:14.812Z,14.02
2023-02-11T09:15:45.532Z,23.88
2023-02-11T09:18:12.206Z,25.27
2023-02-11T09:20:38.834Z,21.15
2023-02-11T09:23:05.384Z,17.30
2023-02-11T09:25:31.940Z,20.92
2023-02-11T09:27:58.619Z,19.20
2023-02-11T09:30:25.186Z,20.52
2023-02-11T09:32:51.748Z,17.05
2023-02-11T09:35:18.322Z,15.27
2023-02-11T09:37:44.886Z,18.77
2023-02-11T09:40:12.969Z,18.75
2023-02-11T09:42:47.693Z,16.15
2023-02-11T09:45:26.743Z,13.80
2023-02-11T09:48:00.430Z,17.83
2023-02-11T09:53:06.736Z,23.58
2023-02-11T09:55:38.048Z,19.90
2023-02-11T09:58:12.004Z,27.50
2023-02-11T10:00:45.101Z,19.45
2023-02-11T10:03:46.728Z,20.95
2023-02-11T10:06:20.127Z,14.93
2023-02-11T10:09:06.949Z,15.20
2023-02-11T10:11:57.814Z,21.73
2023-02-11T10:14:42.495Z,20.52
2023-02-11T10:17:36.920Z,18.13
2023-02-11T10:22:55.724Z,16.58
2023-02-11T10:25:27.102Z,16.33
2023-02-11T10:27:58.024Z,13.77
2023-02-11T10:30:31.185Z,15.32
2023-02-11T10:33:04.369Z,18.73
2023-02-11T10:35:31.949Z,13.77
2023-02-11T10:37:59.685Z,20.95
2023-02-11T10:40:29.264Z,18.50
2023-02-11T10:43:00.810Z,14.70
2023-02-11T10:45:27.276Z,16.30
2023-02-11T10:47:55.245Z,18.83
2023-02-11T10:50:34.924Z,19.02
2023-02-11T10:53:21.605Z,16.90
2023-02-11T10:55:57.312Z,23.23
2023-02-11T10:58:30.757Z,13.00
2023-02-11T11:01:00.135Z,20.60
2023-02-11T11:03:37.032Z,13.30
2023-02-11T11:06:09.453Z,18.70
2023-02-11T11:08:49.241Z,12.02
2023-02-11T11:11:18.613Z,12.68
2023-02-11T11:13:54.324Z,13.05
2023-02-11T11:16:51.872Z,10.85
2023-02-11T11:19:25.940Z,13.57
2023-02-11T11:21:54.851Z,10.45
2023-02-11T11:24:31.255Z,9.32
2023-02-11T11:27:01.753Z,10.52
2023-02-11T11:29:39.583Z,12.05
2023-02-11T11:32:20.750Z,11.68
2023-02-11T11:34:54.099Z,10.38
2023-02-11T11:37:25.521Z,13.05
2023-02-11T11:40:09.824Z,7.35
2023-02-11T11:42:38.600Z,9.82
2023-02-11T11:45:19.780Z,11.05
2023-02-11T11:48:00.626Z,16.90
2023-02-11T11:50:40.145Z,9.48
2023-02-11T11:53:21.154Z,8.95
2023-02-11T11:55:53.608Z,9.52
2023-02-11T11:58:23.478Z,13.18
2023-02-11T12:00:55.954Z,10.38
2023-02-11T12:03:40.927Z,9.85
2023-02-11T12:06:30.277Z,8.77
2023-02-11T12:09:19.881Z,7.20
2023-02-11T12:12:24.030Z,8.45
2023-02-11T12:15:05.915Z,12.93
2023-02-11T12:18:13.928Z,11.18
2023-02-11T12:20:59.960Z,8.27
2023-02-11T12:23:37.319Z,11.52
2023-02-11T12:26:03.786Z,10.07
2023-02-11T12:28:39.421Z,9.85
2023-02-11T12:31:29.184Z,10.05
2023-02-11T12:34:18.361Z,17.83
2023-02-11T12:36:55.413Z,10.05
2023-02-11T12:39:38.175Z,9.43
2023-02-11T12:42:38.574Z,12.10
2023-02-11T12:45:11.044Z,11.15
2023-02-11T12:48:13.105Z,9.73
2023-02-11T12:50:59.149Z,9.43
2023-02-11T12:53:51.779Z,9.55
2023-02-11T12:56:31.296Z,11.35
2023-02-11T12:59:00.353Z,11.15
2023-02-11T13:01:33.780Z,10.65
2023-02-11T13:04:16.033Z,13.52
2023-02-11T13:06:48.558Z,11.45
2023-02-11T13:09:22.449Z,10.60
2023-02-11T13:11:53.794Z,13.23
2023-02-11T13:14:35.534Z,10.75
2023-02-11T13:17:16.181Z,10.18
2023-02-11T13:19:50.680Z,15.00
2023-02-11T13:22:24.249Z,15.43
2023-02-11T13:24:56.591Z,14.43
2023-02-11T13:27:51.196Z,14.18
2023-02-11T13:30:29.381Z,12.73
2023-02-11T13:32:56.019Z,14.63
2023-02-11T13:35:45.932Z,13.32
2023-02-11T13:38:27.607Z,16.83
2023-02-11T13:41:03.046Z,12.40
2023-02-11T13:43:34.482Z,14.82
2023-02-11T13:46:10.596Z,8.45
2023-02-11T13:48:49.962Z,8.25
2023-02-11T13:51:19.371Z,10.15
2023-02-11T13:53:58.183Z,10.15
2023-02-11T13:56:30.623Z,7.07
2023-02-11T13:59:01.874Z,12.88
2023-02-11T14:02:07.716Z,15.25
2023-02-11T14:04:53.178Z,12.68
2023-02-11T14:07:50.414Z,10.45
2023-02-11T14:10:41.730Z,13.10
2023-02-11T14:13:27.583Z,17.70
2023-02-11T14:16:13.552Z,14.32
2023-02-11T14:18:49.006Z,11.43
2023-02-11T14:21:34.165Z,13.93
2023-02-11T14:24:05.137Z,15.43
2023-02-11T14:26:53.628Z,12.23
2023-02-11T14:29:32.484Z,11.05
2023-02-11T14:31:59.084Z,8.95
2023-02-11T14:34:46.901Z,13.38
2023-02-11T14:37:38.266Z,10.80
2023-02-11T14:40:17.826Z,9.35
2023-02-11T14:42:45.319Z,10.23
2023-02-11T14:45:19.835Z,12.60
2023-02-11T14:47:59.386Z,13.65
2023-02-11T14:50:44.974Z,12.90
2023-02-11T14:53:24.274Z,13.40
2023-02-11T14:55:53.547Z,9.23
2023-02-11T14:58:24.070Z,6.63
2023-02-11T15:01:01.059Z,8.95
2023-02-11T15:03:37.686Z,11.77
2023-02-11T15:06:12.482Z,14.52
2023-02-11T15:08:45.752Z,15.48
2023-02-11T15:11:15.683Z,10.52
2023-02-11T15:13:49.724Z,12.00
2023-02-11T15:16:20.810Z,12.23
2023-02-11T15:18:51.836Z,8.80
2023-02-11T15:21:24.691Z,6.10
2023-02-11T15:23:57.213Z,9.17
2023-02-11T15:26:23.866Z,7.53
2023-02-11T15:28:52.134Z,7.68
2023-02-11T15:31:21.608Z,6.55
2023-02-11T15:33:48.322Z,9.25
2023-02-11T15:36:16.769Z,6.63
2023-02-11T15:38:43.608Z,8.43
2023-02-11T15:41:34.721Z,7.15
2023-02-11T15:44:01.294Z,8.57
2023-02-11T15:46:36.688Z,10.05
2023-02-11T15:49:03.803Z,8.05
2023-02-11T15:51:34.617Z,9.30
2023-02-11T15:54:15.302Z,12.95
2023-02-11T15:56:44.354Z,11.35
2023-02-11T15:59:23.969Z,12.32
2023-02-11T16:01:50.827Z,12.30
2023-02-11T16:04:20.807Z,13.43
2023-02-11T16:06:48.193Z,12.43
2023-02-11T16:09:14.634Z,13.73
2023-02-11T16:12:18.966Z,11.65
2023-02-11T16:14:45.533Z,10.65
2023-02-11T16:17:29.470Z,11.35
2023-02-11T16:19:56.339Z,10.90
2023-02-11T16:22:26.399Z,13.43
2023-02-11T16:24:57.321Z,9.73
2023-02-11T16:27:31.915Z,11.52
2023-02-11T16:29:58.906Z,13.18
2023-02-11T16:32:29.770Z,13.02
2023-02-11T16:34:59.099Z,12.73
2023-02-11T16:37:27.131Z,10.95
2023-02-11T16:39:54.634Z,9.88
2023-02-11T16:42:21.236Z,13.75
2023-02-11T16:44:47.778Z,10.75
2023-02-11T16:47:24.599Z,12.13
2023-02-11T16:49:51.474Z,11.30
2023-02-11T16:52:19.863Z,11.70
2023-02-11T16:54:46.860Z,9.07
2023-02-11T16:57:18.778Z,11.73
2023-02-11T16:59:46.983Z,12.65
2023-02-11T17:02:29.265Z,9.40
2023-02-11T17:04:59.556Z,10.75
2023-02-11T17:07:26.576Z,8.00
2023-02-11T17:09:53.215Z,12.50
2023-02-11T17:12:21.030Z,10.93
2023-02-11T17:14:47.736Z,24.63
2023-02-11T17:17:14.443Z,9.32
2023-02-11T17:19:41.068Z,10.00
2023-02-11T17:22:08.228Z,8.57
2023-02-11T17:24:34.783Z,10.63
2023-02-11T17:27:01.336Z,9.52
2023-02-11T17:29:28.058Z,9.57
2023-02-11T17:31:54.782Z,12.40
2023-02-11T17:34:23.006Z,11.80
2023-02-11T17:36:49.646Z,11.93
2023-02-11T17:39:16.573Z,9.80
2023-02-11T17:41:43.127Z,11.73
2023-02-11T17:44:12.453Z,9.13
2023-02-11T17:46:39.187Z,10.60
2023-02-11T17:49:06.418Z,8.93
2023-02-11T17:51:35.899Z,9.73
2023-02-11T17:54:05.619Z,7.95
2023-02-11T17:56:33.560Z,10.95
2023-02-11T17:59:02.335Z,9.38
2023-02-11T18:01:30.547Z,8.45
2023-02-11T18:03:57.553Z,12.30
2023-02-11T18:06:24.243Z,9.45
2023-02-11T18:08:50.780Z,12.50
2023-02-11T18:11:17.780Z,13.48
2023-02-11T18:13:45.377Z,8.65
2023-02-11T18:16:16.088Z,9.50
2023-02-11T18:18:43.590Z,9.90
2023-02-11T18:21:15.265Z,11.65
2023-02-11T18:23:41.865Z,11.20
2023-02-11T18:26:09.981Z,9.50
2023-02-11T18:28:37.003Z,11.15
2023-02-11T18:31:07.911Z,13.65
2023-02-11T18:33:36.315Z,9.77
2023-02-11T18:36:07.332Z,9.30
2023-02-11T18:38:34.400Z,9.32
2023-02-11T18:41:01.142Z,6.75
2023-02-11T18:43:31.684Z,8.25
2023-02-11T18:45:58.392Z,9.82
2023-02-11T18:48:28.592Z,9.25
2023-02-11T18:50:55.647Z,12.60
2023-02-11T18:53:23.130Z,12.68
2023-02-11T18:55:50.007Z,9.50
2023-02-11T18:58:17.132Z,14.73
2023-02-11T19:00:46.347Z,12.73
2023-02-11T19:03:12.997Z,10.65
2023-02-11T19:05:44.120Z,8.38
2023-02-11T19:08:10.876Z,11.05
2023-02-11T19:10:45.984Z,11.20
2023-02-11T19:13:13.089Z,10.07
2023-02-11T19:15:44.476Z,10.98
2023-02-11T19:18:12.554Z,10.95
2023-02-11T19:20:40.416Z,7.50
2023-02-11T19:23:07.508Z,12.40
2023-02-11T19:25:34.611Z,13.40
2023-02-11T19:28:01.487Z,10.95
2023-02-11T19:30:28.185Z,13.93
2023-02-11T19:32:57.205Z,16.13
2023-02-11T19:35:24.816Z,10.50
2023-02-11T19:37:51.354Z,11.50
2023-02-11T19:40:19.219Z,12.60
2023-02-11T19:42:45.856Z,9.57
2023-02-11T19:45:12.665Z,16.45
2023-02-11T19:47:39.430Z,12.57
2023-02-11T19:50:06.621Z,11.93
2023-02-11T19:52:33.221Z,9.88
2023-02-11T19:55:00.472Z,13.10
2023-02-11T19:57:27.178Z,12.68
2023-02-11T19:59:55.048Z,8.25
2023-02-11T20:02:21.674Z,10.70
2023-02-11T20:04:48.569Z,12.07
2023-02-11T20:07:15.211Z,11.55
2023-02-11T20:09:42.639Z,12.75
2023-02-11T20:12:10.414Z,11.07
2023-02-11T20:14:37.010Z,10.68
2023-02-11T20:17:03.816Z,11.93
2023-02-11T20:19:30.766Z,13.52
2023-02-11T20:21:57.356Z,11.88
2023-02-11T20:24:25.489Z,11.23
2023-02-11T20:26:55.510Z,11.35
2023-02-11T20:29:22.745Z,13.15
2023-02-11T20:31:50.135Z,9.20
2023-02-11T20:34:18.031Z,14.75
2023-02-11T20:36:51.610Z,11.93
2023-02-11T20:39:21.901Z,13.70
2023-02-11T20:41:49.323Z,13.50
2023-02-11T20:44:16.184Z,9.70
2023-02-11T20:46:47.903Z,10.82
2023-02-11T20:49:16.500Z,12.75
2023-02-11T20:51:43.395Z,14.10
2023-02-11T20:54:14.931Z,9.65
2023-02-11T20:56:41.650Z,10.88
2023-02-11T20:59:08.562Z,10.20
2023-02-11T21:01:43.292Z,11.43
2023-02-11T21:04:18.706Z,14.43
2023-02-11T21:06:49.158Z,14.85
2023-02-11T21:09:19.813Z,11.05
2023-02-11T21:11:47.300Z,12.55
2023-02-11T21:14:13.879Z,11.15
2023-02-11T21:16:41.033Z,10.32
2023-02-11T21:19:07.707Z,33.83
2023-02-11T21:21:38.181Z,12.68
2023-02-11T21:24:08.457Z,13.63
2023-02-11T21:26:35.606Z,12.48
2023-02-11T21:29:04.067Z,11.48
2023-02-11T21:31:33.341Z,12.25
2023-02-11T21:34:00.044Z,13.75
2023-02-11T21:36:28.315Z,10.45
2023-02-11T21:38:55.008Z,11.25
2023-02-11T21:41:22.785Z,9.70
2023-02-11T21:43:50.357Z,9.32
2023-02-11T21:46:17.936Z,15.18
2023-02-11T21:48:44.519Z,11.52
2023-02-11T21:51:17.625Z,11.95
2023-02-11T21:53:44.924Z,12.63
2023-02-11T21:56:14.070Z,11.25
2023-02-11T21:58:40.747Z,8.75
2023-02-11T22:01:13.141Z,14.10
2023-02-11T22:03:39.850Z,11.90
2023-02-11T22:06:12.594Z,16.35
2023-02-11T22:08:39.821Z,11.73
2023-02-11T22:11:08.602Z,12.20
2023-02-11T22:13:36.036Z,11.98
2023-02-11T22:16:05.615Z,9.90
2023-02-11T22:18:32.603Z,13.52
2023-02-11T22:21:05.394Z,12.00
2023-02-11T22:23:32.232Z,14.63
2023-02-11T22:26:03.260Z,10.73
2023-02-11T22:28:30.147Z,13.60
2023-02-11T22:30:58.204Z,14.48
2023-02-11T22:33:25.889Z,13.18
2023-02-11T22:36:04.420Z,13.45
2023-02-11T22:38:31.860Z,11.48
2023-02-11T22:40:59.704Z,10.15
2023-02-11T22:43:27.800Z,11.30
2023-02-11T22:45:56.463Z,14.82
2023-02-11T22:48:23.422Z,12.40
2023-02-11T22:50:50.023Z,10.77
2023-02-11T22:53:16.746Z,9.98
2023-02-11T22:55:43.336Z,12.52
2023-02-11T22:58:09.918Z,10.50
2023-02-11T23:00:40.673Z,10.57
2023-02-11T23:03:08.573Z,14.98
2023-02-11T23:05:42.155Z,12.65
2023-02-11T23:08:11.037Z,11.30
2023-02-11T23:10:39.718Z,13.50
2023-02-11T23:13:07.882Z,17.83
2023-02-11T23:15:38.412Z,13.82
2023-02-11T23:18:05.225Z,11.80
2023-02-11T23:20:34.417Z,14.50
2023-02-11T23:23:00.964Z,13.40
2023-02-11T23:25:27.539Z,15.10
2023-02-11T23:27:54.169Z,15.20
2023-02-11T23:30:21.874Z,13.52
2023-02-11T23:32:49.338Z,17.23
2023-02-11T23:35:22.086Z,15.27
2023-02-11T23:37:50.360Z,18.55
2023-02-11T23:40:17.438Z,14.75
2023-02-11T23:42:44.130Z,12.85
2023-02-11T23:45:10.786Z,14.57
2023-02-11T23:47:37.406Z,11.18
2023-02-11T23:50:04.144Z,20.92
2023-02-11T23:52:30.697Z,15.63
2023-02-11T23:54:57.240Z,15.18
2023-02-11T23:57:23.836Z,17.67
2023-02-11T23:59:50.738Z,13.70
